Noonday, Texas
Current Conditions -  °F | °C
As of 2:53 PM on Thursday 18 Dec 2014 (Local Time) from KTYR Reporting Station
Haze Haze  
Wind Chill: 50°   Ceiling: 400
Heat Index: 50°   Visibility: 6mi
Dew Point: 47°   Wind: 5mph
Humidity: 89%   Direction: 40°NE
Pressure: 30.1"   Gusts: NA
Location:  32.2242°N, 95.404°W
Report Text: KTYR 182053Z 04004KT 6SM BR OVC004 10/08 A3010 RMK AO2 SLP192 T01000083 58010
Loading
Personal Weather Stations






























Interactive Weather Map New forecast layout! Learn more

10-Day Weather Forecast

Advertisements
Track Severe Weather on mobile